CheckWX is a tool to help pilots better visualize weather data.  It is not intended as a substitute for an official pre-flight weather briefing.

18:03:57 UTC

KCWI METAR
Clinton Municipal Airport
Clinton, Iowa, USA
Current

34 mins ago

KCWI 271730Z AUTO 02010KT 10SM OVC011 M01/M03 A3004 RMK AO2 FZRANO
Observed
Jan-27 @ 17:30 UTC
Wind
  • 020° at 10 KTS
Visibility
10 SM
Flight Rules
MVFR
Cloud Levels
  • Overcast at 1,100' AGL
Temperature
-1°C / 30°F
Dewpoint
-3°C / 27°F
Humidity
86%
Altimeter
30.04" Hg
Pressure
1017.32 hPa
Previous

1 hour ago

KCWI 271656Z AUTO 34008KT 10SM OVC009 M02/M04 A3005 RMK AO2 SLP187 T10171039 FZRANO
Observed
Jan-27 @ 16:56 UTC
Wind
  • 340° at 8 KTS
Visibility
10 SM
Flight Rules
IFR
Cloud Levels
  • Overcast at 900' AGL
Temperature
-2°C / 28°F
Dewpoint
-4°C / 25°F
Humidity
86%
Altimeter
30.05" Hg
Pressure
1017.62 hPa
Previous

2 hours ago

KCWI 271556Z AUTO 35009KT 10SM OVC009 M02/M03 A3003 RMK AO2 SLP182 T10171028 FZRANO
Observed
Jan-27 @ 15:56 UTC
Wind
  • 350° at 9 KTS
Visibility
10 SM
Flight Rules
IFR
Cloud Levels
  • Overcast at 900' AGL
Temperature
-2°C / 28°F
Dewpoint
-3°C / 27°F
Humidity
93%
Altimeter
30.03" Hg
Pressure
1016.92 hPa